This is the latest recevied weather packets stored in our database for station/object WW0K. If no packets are shown the sender has not sent any weather packets the latest 10 day(s).
| Time | Temp. | Humidity | Pressure | Rain* | Wind** | Luminosity | Snow |
|---|---|---|---|---|---|---|---|
| 1777205725 | 12.22° C | 81% | - | 0 mm | - | - | - |
| 1777199731 | 12.22° C | 82% | - | 0 mm | - | - | - |
| 1777193720 | 12.22° C | 79% | - | 0 mm | - | - | - |
| 1777191325 | 12.78° C | 79% | - | 0 mm | - | - | - |
| 1777190731 | 12.22° C | 79% | - | 0 mm | - | - | - |
| 1777187725 | 11.67° C | 84% | - | 0 mm | - | - | - |
| 1777181751 | 12.78° C | 78% | - | 0 mm | - | - | - |
| 1777178131 | 14.44° C | 72% | - | 0 mm | - | - | - |
| 1777176945 | 14.44° C | 72% | - | 0 mm | - | - | - |
| 1777176331 | 14.44° C | 72% | - | 0 mm | - | - | - |
| 1777163119 | 20.56° C | 49% | - | 0 mm | - | - | - |
| 1777156531 | 22.78° C | 42% | - | 0 mm | - | - | - |
| 1777147530 | 23.89° C | 40% | - | 0 mm | - | - | - |
| 1777146938 | 23.89° C | 40% | - | 0 mm | - | - | - |
| 1777145731 | 23.89° C | 39% | - | 0 mm | - | - | - |
| 1777145137 | 23.33° C | 40% | - | 0 mm | - | - | - |
| 1777142745 | 22.78° C | 41% | - | 0 mm | - | - | - |
| 1777140924 | 21.67° C | 42% | - | 0 mm | - | - | - |
| 1777135523 | 20.56° C | 44% | - | 0 mm | - | - | - |
| 1777134930 | 20.56° C | 43% | - | 0 mm | - | - | - |
| 1777130123 | 18.33° C | 51% | - | 0 mm | - | - | - |
| 1777129529 | 17.78° C | 49% | - | 0 mm | - | - | - |
| 1777127729 | 16.67° C | 51% | - | 0 mm | - | - | - |
| 1777122328 | 8.89° C | 89% | - | 0 mm | - | - | - |
| 1777119934 | 6.67° C | 98% | - | 0 mm | - | - | - |
* Rain latest hour (hover to see other rain measurements)
** Current wind speed in m/s (hover to see current wind gust speed)